Time;durP1;ratioP1;P1;durP2;ratioP2;P2;SDS_P1;SDS_P2;PMS_P1;PMS_P2;Temp;Humidity;BMP_temperature;BMP_pressure;BME280_temperature;BME280_humidity;BME280_pressure;Samples;Min_cycle;Max_cycle;Signal;HPM_P1;HPM_P2
2021/10/17 00:01:09;;;;;;;6.53;3.97;;;15.80;82.70;;;;;;4209016;28;20048;-60
2021/10/17 00:03:31;;;;;;;5.78;3.90;;;15.80;82.50;;;;;;4199713;27;20066;-59
2021/10/17 00:05:53;;;;;;;8.10;4.10;;;15.80;82.60;;;;;;4226446;27;20039;-60
2021/10/17 00:08:15;;;;;;;7.35;4.05;;;15.80;82.30;;;;;;4226509;27;20521;-59
2021/10/17 00:10:39;;;;;;;9.45;4.35;;;15.80;81.70;;;;;;4226011;27;20075;-59
2021/10/17 00:13:04;;;;;;;6.35;4.57;;;15.80;81.60;;;;;;4226867;27;20076;-60
2021/10/17 00:15:29;;;;;;;4.85;3.88;;;15.80;82.60;;;;;;4226417;27;20059;-60
2021/10/17 00:17:52;;;;;;;7.30;4.28;;;15.80;81.60;;;;;;4191973;28;20048;-60
2021/10/17 00:20:16;;;;;;;7.88;4.28;;;15.80;81.80;;;;;;4192874;28;20062;-60
2021/10/17 00:22:40;;;;;;;6.38;3.78;;;15.80;82.00;;;;;;4192585;28;20392;-59
2021/10/17 00:25:02;;;;;;;6.63;4.75;;;15.80;82.20;;;;;;4192732;28;20064;-59
2021/10/17 00:27:25;;;;;;;6.47;3.95;;;15.80;82.10;;;;;;4176265;28;20446;-59
2021/10/17 00:29:47;;;;;;;8.43;5.05;;;15.80;82.40;;;;;;4186738;28;20388;-59
2021/10/17 00:32:12;;;;;;;5.55;4.30;;;15.80;82.20;;;;;;4203646;27;20497;-60
2021/10/17 00:34:34;;;;;;;7.75;4.57;;;15.80;82.20;;;;;;4226197;27;20056;-60
2021/10/17 00:36:56;;;;;;;4.78;3.22;;;15.80;82.00;;;;;;4226174;27;20104;-60
2021/10/17 00:39:18;;;;;;;6.95;4.38;;;15.80;82.60;;;;;;4224906;28;20799;-60
2021/10/17 00:41:41;;;;;;;6.55;3.97;;;15.80;81.90;;;;;;4224656;27;20054;-60
2021/10/17 00:44:05;;;;;;;5.50;4.10;;;15.80;82.30;;;;;;4226178;27;20050;-60
2021/10/17 00:46:28;;;;;;;10.95;5.13;;;15.80;81.60;;;;;;4226079;27;20050;-60
2021/10/17 00:48:51;;;;;;;6.70;4.10;;;15.80;82.20;;;;;;4221515;27;20517;-59
2021/10/17 00:51:13;;;;;;;6.72;4.13;;;15.80;81.90;;;;;;4207472;28;20060;-60
2021/10/17 00:53:35;;;;;;;6.97;4.15;;;15.80;82.20;;;;;;4209233;28;20509;-60
2021/10/17 00:55:57;;;;;;;6.55;4.35;;;15.80;82.30;;;;;;4207606;28;20125;-60
2021/10/17 00:58:19;;;;;;;4.80;3.72;;;15.80;82.90;;;;;;4208705;28;20059;-59
2021/10/17 01:00:43;;;;;;;7.13;4.10;;;15.80;82.60;;;;;;4208018;28;20494;-60
2021/10/17 01:03:05;;;;;;;6.50;4.10;;;15.80;82.20;;;;;;4208588;28;20051;-60
2021/10/17 01:05:28;;;;;;;6.80;4.03;;;15.70;82.60;;;;;;4225696;27;20071;-60
2021/10/17 01:07:51;;;;;;;6.72;4.10;;;15.70;82.60;;;;;;4220340;27;20047;-60
2021/10/17 01:10:14;;;;;;;5.95;4.43;;;15.70;82.50;;;;;;4190749;28;20071;-60
2021/10/17 01:12:36;;;;;;;7.20;4.53;;;15.70;82.80;;;;;;4190558;28;20076;-59
2021/10/17 01:14:58;;;;;;;4.60;4.07;;;15.70;82.70;;;;;;4192006;28;20080;-60
2021/10/17 01:17:23;;;;;;;10.38;4.40;;;15.70;82.60;;;;;;4218869;28;20036;-60
2021/10/17 01:19:50;;;;;;;7.45;4.68;;;15.70;82.40;;;;;;4223698;27;20058;-60
2021/10/17 01:22:15;;;;;;;5.05;3.85;;;15.70;82.60;;;;;;4224188;27;20412;-60
2021/10/17 01:24:37;;;;;;;7.43;4.40;;;15.70;82.80;;;;;;4224087;27;20055;-59
2021/10/17 01:26:59;;;;;;;6.53;4.15;;;15.70;82.80;;;;;;4211986;28;20438;-59
2021/10/17 01:29:21;;;;;;;6.03;3.63;;;15.70;83.00;;;;;;4217734;27;20664;-60
2021/10/17 01:31:51;;;;;;;8.27;4.25;;;15.70;83.00;;;;;;4223693;27;20440;-60
2021/10/17 01:34:15;;;;;;;6.65;4.65;;;15.70;82.70;;;;;;4220720;28;20052;-60
2021/10/17 01:36:39;;;;;;;8.80;4.80;;;15.70;82.70;;;;;;4206956;28;20052;-60
2021/10/17 01:39:01;;;;;;;6.93;4.15;;;15.70;82.50;;;;;;4209226;27;20048;-60
2021/10/17 01:41:24;;;;;;;8.43;5.07;;;15.70;82.70;;;;;;4197665;28;20048;-60
2021/10/17 01:43:48;;;;;;;7.78;4.13;;;15.70;82.60;;;;;;4206757;28;20065;-59
2021/10/17 01:46:10;;;;;;;6.72;4.20;;;15.70;82.50;;;;;;4191715;28;20434;-60
2021/10/17 01:48:36;;;;;;;6.53;4.38;;;15.70;82.50;;;;;;4198338;28;20062;-59
2021/10/17 01:50:58;;;;;;;5.78;4.18;;;15.70;82.60;;;;;;4206902;28;20048;-59
2021/10/17 01:53:21;;;;;;;5.00;4.03;;;15.70;82.60;;;;;;4206521;28;20056;-59
2021/10/17 01:55:43;;;;;;;9.60;4.63;;;15.70;82.50;;;;;;4206931;28;20138;-60
2021/10/17 01:58:05;;;;;;;8.68;4.47;;;15.60;82.50;;;;;;4206607;28;20073;-59
2021/10/17 02:00:28;;;;;;;6.88;4.32;;;15.60;82.70;;;;;;4206199;28;20058;-60
2021/10/17 02:02:50;;;;;;;7.57;4.57;;;15.60;82.70;;;;;;4206251;28;20064;-59
2021/10/17 02:05:18;;;;;;;8.32;3.92;;;15.60;83.00;;;;;;4206340;28;20821;-59
2021/10/17 02:07:42;;;;;;;6.18;4.10;;;15.60;83.00;;;;;;4206313;28;20089;-60
2021/10/17 02:10:08;;;;;;;4.97;3.75;;;15.60;83.00;;;;;;4206440;28;20048;-60
2021/10/17 02:12:30;;;;;;;6.80;3.97;;;15.60;83.00;;;;;;4206742;28;20521;-60
2021/10/17 02:14:52;;;;;;;4.78;3.80;;;15.60;83.00;;;;;;4215845;27;20116;-60
2021/10/17 02:17:17;;;;;;;6.75;4.43;;;15.60;83.00;;;;;;4206389;28;20494;-59
2021/10/17 02:19:41;;;;;;;8.13;4.18;;;15.60;83.90;;;;;;4205939;28;20123;-60
2021/10/17 02:22:03;;;;;;;8.25;4.38;;;15.60;83.10;;;;;;4206412;28;20797;-60
2021/10/17 02:24:26;;;;;;;8.40;4.22;;;15.60;83.10;;;;;;4207826;28;20131;-59
2021/10/17 02:26:51;;;;;;;10.55;4.80;;;15.60;82.60;;;;;;4206423;28;20110;-60
2021/10/17 02:29:25;;;;;;;8.20;4.05;;;15.60;82.70;;;;;;4189144;28;20059;-59
2021/10/17 02:32:14;;;;;;;7.28;4.10;;;15.60;83.20;;;;;;4186775;27;20044;-60
2021/10/17 02:34:38;;;;;;;6.05;4.57;;;15.60;83.60;;;;;;4252188;27;20670;-60
2021/10/17 02:37:01;;;;;;;6.72;4.63;;;15.60;83.70;;;;;;4223427;28;20104;-60
2021/10/17 02:39:24;;;;;;;6.32;5.00;;;15.60;83.30;;;;;;4223319;27;20059;-60
2021/10/17 02:41:47;;;;;;;4.88;4.10;;;15.60;83.50;;;;;;4223483;28;20051;-59
2021/10/17 02:44:10;;;;;;;4.65;4.15;;;15.60;83.20;;;;;;4222184;27;20071;-60
2021/10/17 02:46:34;;;;;;;7.28;4.57;;;15.60;83.40;;;;;;4207637;28;20131;-59
2021/10/17 02:48:57;;;;;;;7.55;4.60;;;15.50;83.70;;;;;;4209383;28;20571;-60
2021/10/17 02:51:19;;;;;;;7.55;4.75;;;15.60;83.80;;;;;;4211676;28;20125;-60
2021/10/17 02:53:44;;;;;;;7.13;4.53;;;15.50;83.70;;;;;;4226558;27;20054;-59
2021/10/17 02:56:08;;;;;;;6.80;4.97;;;15.50;83.60;;;;;;4225626;27;20046;-59
2021/10/17 02:58:30;;;;;;;8.07;5.10;;;15.50;83.90;;;;;;4226389;28;20040;-59
2021/10/17 03:00:57;;;;;;;5.50;4.65;;;15.50;83.80;;;;;;4226484;27;20053;-59
2021/10/17 03:03:20;;;;;;;5.57;4.55;;;15.50;83.80;;;;;;4226229;27;20140;-59
2021/10/17 03:05:43;;;;;;;6.55;4.85;;;15.50;83.90;;;;;;4226011;27;20134;-60
2021/10/17 03:08:06;;;;;;;8.07;4.88;;;15.50;83.70;;;;;;4212428;28;20055;-60
2021/10/17 03:10:28;;;;;;;7.85;4.53;;;15.50;83.90;;;;;;4210758;28;20048;-60
2021/10/17 03:12:50;;;;;;;7.07;4.43;;;15.50;84.00;;;;;;4210528;28;20047;-59
2021/10/17 03:15:15;;;;;;;7.70;5.13;;;15.50;84.00;;;;;;4208947;28;20051;-60
2021/10/17 03:17:38;;;;;;;7.85;4.80;;;15.50;84.30;;;;;;4209238;28;20052;-59
2021/10/17 03:20:01;;;;;;;8.80;5.13;;;15.50;84.30;;;;;;4209018;28;20116;-59
2021/10/17 03:22:30;;;;;;;7.68;5.15;;;15.50;84.50;;;;;;4193308;28;20060;-60
2021/10/17 03:24:52;;;;;;;8.93;4.72;;;15.50;84.40;;;;;;4192005;28;20499;-60
2021/10/17 03:27:14;;;;;;;7.07;5.18;;;15.50;84.50;;;;;;4202090;28;20160;-59
2021/10/17 03:29:40;;;;;;;7.55;5.20;;;15.50;84.50;;;;;;4223626;27;20144;-60
2021/10/17 03:32:02;;;;;;;5.55;5.03;;;15.50;84.60;;;;;;4219723;28;20604;-60
2021/10/17 03:34:29;;;;;;;7.47;5.13;;;15.50;84.50;;;;;;4210501;28;20048;-59
2021/10/17 03:36:51;;;;;;;6.47;4.85;;;15.50;84.60;;;;;;4208826;28;20052;-60
2021/10/17 03:39:14;;;;;;;7.57;5.10;;;15.50;84.70;;;;;;4208850;28;20188;-59
2021/10/17 03:41:36;;;;;;;8.15;5.35;;;15.50;84.60;;;;;;4210156;28;20410;-60
2021/10/17 03:43:59;;;;;;;10.32;6.03;;;15.50;84.80;;;;;;4208824;28;20054;-60
2021/10/17 03:46:22;;;;;;;10.00;5.93;;;15.50;84.80;;;;;;4209156;28;20062;-59
2021/10/17 03:48:46;;;;;;;7.63;5.45;;;15.50;84.60;;;;;;4208466;28;20074;-60
2021/10/17 03:51:13;;;;;;;8.68;5.57;;;15.40;84.70;;;;;;4207965;28;20044;-59
2021/10/17 03:53:36;;;;;;;6.75;5.72;;;15.50;84.80;;;;;;4207878;28;20068;-60
2021/10/17 03:55:58;;;;;;;10.80;6.03;;;15.40;84.70;;;;;;4225127;27;20043;-60
2021/10/17 03:58:20;;;;;;;7.18;5.03;;;15.40;85.60;;;;;;4224751;27;20061;-59
2021/10/17 04:00:43;;;;;;;9.48;5.32;;;15.40;85.00;;;;;;4224784;27;20054;-59
2021/10/17 04:03:05;;;;;;;7.60;4.95;;;15.40;85.10;;;;;;4225116;27;20493;-60
2021/10/17 04:05:29;;;;;;;7.63;5.47;;;15.40;86.10;;;;;;4222538;28;20143;-60
2021/10/17 04:07:52;;;;;;;8.27;5.22;;;15.50;85.30;;;;;;4193035;28;20098;-60
2021/10/17 04:10:14;;;;;;;8.43;4.68;;;15.40;85.00;;;;;;4191601;28;20155;-60
2021/10/17 04:12:37;;;;;;;8.50;5.55;;;15.40;85.20;;;;;;4191603;28;20454;-60
2021/10/17 04:15:00;;;;;;;7.07;4.68;;;15.40;85.00;;;;;;4206652;28;20165;-59
2021/10/17 04:17:23;;;;;;;7.07;4.80;;;15.40;85.00;;;;;;4207951;28;20121;-60
2021/10/17 04:19:45;;;;;;;9.65;5.10;;;15.40;85.00;;;;;;4208488;28;20051;-59
2021/10/17 04:22:07;;;;;;;7.80;5.00;;;15.40;85.00;;;;;;4209337;28;20056;-60
2021/10/17 04:24:31;;;;;;;8.48;4.75;;;15.40;84.90;;;;;;4215412;27;20051;-60
2021/10/17 04:26:53;;;;;;;8.20;5.13;;;15.40;84.90;;;;;;4212739;28;20058;-59
2021/10/17 04:29:17;;;;;;;8.60;5.15;;;15.40;85.10;;;;;;4207726;28;20054;-60
2021/10/17 04:31:40;;;;;;;8.55;5.13;;;15.40;85.00;;;;;;4208715;28;20154;-60
2021/10/17 04:34:02;;;;;;;9.90;4.40;;;15.40;84.80;;;;;;4221467;27;20066;-60
2021/10/17 04:36:24;;;;;;;8.10;5.07;;;15.40;85.00;;;;;;4225971;27;20575;-60
2021/10/17 04:38:46;;;;;;;6.68;4.55;;;15.40;84.80;;;;;;4224830;28;20074;-60
2021/10/17 04:41:09;;;;;;;6.97;4.20;;;15.40;85.00;;;;;;4226033;27;20101;-60
2021/10/17 04:43:31;;;;;;;7.75;5.13;;;15.40;84.80;;;;;;4215791;28;20048;-59
2021/10/17 04:45:54;;;;;;;4.85;4.15;;;15.40;84.90;;;;;;4214441;27;20493;-60
2021/10/17 04:48:18;;;;;;;11.50;5.47;;;15.40;84.90;;;;;;4226136;27;20131;-60
2021/10/17 04:50:40;;;;;;;13.73;4.57;;;15.40;85.00;;;;;;4225675;27;20051;-60
2021/10/17 04:53:03;;;;;;;6.70;4.35;;;15.40;84.80;;;;;;4226082;27;20181;-60
2021/10/17 04:55:25;;;;;;;8.13;4.88;;;15.40;84.90;;;;;;4218848;27;20051;-60
2021/10/17 04:57:48;;;;;;;7.63;4.78;;;15.40;84.90;;;;;;4207839;28;20078;-59
2021/10/17 05:00:12;;;;;;;6.90;4.47;;;15.40;84.70;;;;;;4207187;28;20561;-60
2021/10/17 05:02:48;;;;;;;7.55;4.63;;;15.40;84.90;;;;;;4207078;28;20753;-61
2021/10/17 05:05:10;;;;;;;7.63;4.57;;;15.40;85.00;;;;;;4208462;28;20055;-60
2021/10/17 05:07:32;;;;;;;7.80;4.47;;;15.30;84.80;;;;;;4215643;28;20113;-60
2021/10/17 05:09:54;;;;;;;8.20;4.20;;;15.40;84.90;;;;;;4206380;28;20046;-61
2021/10/17 05:12:16;;;;;;;6.50;4.47;;;15.40;84.70;;;;;;4207072;28;20082;-60
2021/10/17 05:14:39;;;;;;;6.25;4.38;;;15.40;84.70;;;;;;4208905;28;20071;-60
2021/10/17 05:17:02;;;;;;;10.23;5.22;;;15.40;84.70;;;;;;4207360;28;20068;-60
2021/10/17 05:19:27;;;;;;;7.90;4.80;;;15.40;85.00;;;;;;4210110;27;20104;-60
2021/10/17 05:21:49;;;;;;;8.82;4.53;;;15.30;84.60;;;;;;4224074;27;20409;-60
2021/10/17 05:24:11;;;;;;;6.88;4.97;;;15.30;84.70;;;;;;4223969;28;20602;-60
2021/10/17 05:26:33;;;;;;;10.07;4.55;;;15.30;84.60;;;;;;4207724;28;20198;-60
2021/10/17 05:28:55;;;;;;;6.88;4.68;;;15.30;84.80;;;;;;4252791;27;20130;-60
2021/10/17 05:31:19;;;;;;;5.95;4.45;;;15.30;84.90;;;;;;4221956;27;20040;-60
2021/10/17 05:33:41;;;;;;;7.72;4.43;;;15.30;84.80;;;;;;4207048;28;20051;-60
2021/10/17 05:36:03;;;;;;;10.65;5.57;;;15.30;84.80;;;;;;4207075;28;20597;-60
2021/10/17 05:38:25;;;;;;;9.57;4.70;;;15.30;84.70;;;;;;4207097;28;20085;-60
2021/10/17 05:40:47;;;;;;;7.22;4.57;;;15.30;85.40;;;;;;4190138;28;20044;-60
2021/10/17 05:43:09;;;;;;;8.68;4.70;;;15.30;84.70;;;;;;4190291;28;20115;-61
2021/10/17 05:45:32;;;;;;;7.85;4.78;;;15.30;85.60;;;;;;4206719;27;20050;-60
2021/10/17 05:47:55;;;;;;;7.05;3.80;;;15.30;84.60;;;;;;4223754;27;20062;-61
2021/10/17 05:50:17;;;;;;;6.88;4.18;;;15.30;85.00;;;;;;4223214;27;20055;-60
2021/10/17 05:52:40;;;;;;;9.07;4.70;;;15.30;84.70;;;;;;4223637;27;20496;-61
2021/10/17 05:55:03;;;;;;;8.75;4.97;;;15.30;84.60;;;;;;4252954;27;20063;-60
2021/10/17 05:57:26;;;;;;;7.55;4.95;;;15.30;84.50;;;;;;4223573;28;20539;-60
2021/10/17 05:59:48;;;;;;;13.05;4.72;;;15.30;84.70;;;;;;4224974;27;20127;-60
2021/10/17 06:02:10;;;;;;;9.38;4.10;;;15.30;84.70;;;;;;4210830;28;20131;-60
2021/10/17 06:04:39;;;;;;;5.90;4.15;;;15.30;84.70;;;;;;4209325;27;20122;-58
2021/10/17 06:07:06;;;;;;;5.20;3.80;;;15.30;85.50;;;;;;4223715;27;20105;-59
2021/10/17 06:09:33;;;;;;;6.18;4.28;;;15.30;84.80;;;;;;4219417;28;20873;-59
2021/10/17 06:11:55;;;;;;;6.60;4.35;;;15.30;84.90;;;;;;4208595;28;20073;-59
2021/10/17 06:14:17;;;;;;;6.55;3.95;;;15.30;84.50;;;;;;4206407;28;20054;-59
2021/10/17 06:16:40;;;;;;;7.13;4.30;;;15.30;84.60;;;;;;4207880;28;20051;-59
2021/10/17 06:19:02;;;;;;;9.73;4.25;;;15.30;84.50;;;;;;4206272;28;20825;-60
2021/10/17 06:21:34;;;;;;;8.63;4.20;;;15.30;84.60;;;;;;4190149;28;20585;-60
2021/10/17 06:23:56;;;;;;;11.30;4.82;;;15.30;84.90;;;;;;4193531;28;20049;-60
2021/10/17 06:26:18;;;;;;;7.65;3.97;;;15.30;85.00;;;;;;4192959;28;20075;-60
2021/10/17 06:28:40;;;;;;;7.38;4.78;;;15.30;84.50;;;;;;4176681;28;20052;-59
2021/10/17 06:31:03;;;;;;;6.28;4.03;;;15.30;84.60;;;;;;4176841;28;20140;-60
2021/10/17 06:33:28;;;;;;;5.82;4.40;;;15.30;84.60;;;;;;4175821;28;20157;-60
2021/10/17 06:35:51;;;;;;;6.95;4.15;;;15.30;84.50;;;;;;4176547;28;20045;-60
2021/10/17 06:38:14;;;;;;;11.65;4.45;;;15.30;85.10;;;;;;4176487;28;20147;-60
2021/10/17 06:40:36;;;;;;;8.52;4.68;;;15.30;83.70;;;;;;4176532;28;20446;-60
2021/10/17 06:43:02;;;;;;;9.82;4.68;;;15.30;84.30;;;;;;4188380;28;20422;-59
2021/10/17 06:45:45;;;;;;;8.98;4.82;;;15.30;84.50;;;;;;4190466;28;20113;-60
2021/10/17 06:48:10;;;;;;;9.80;4.68;;;15.30;84.60;;;;;;4190523;28;20056;-59
2021/10/17 06:50:32;;;;;;;7.78;4.47;;;15.30;84.40;;;;;;4177905;28;20061;-60
2021/10/17 06:52:54;;;;;;;8.10;4.65;;;15.20;83.90;;;;;;4223468;27;20131;-60
2021/10/17 06:55:18;;;;;;;7.35;4.45;;;15.20;84.10;;;;;;4226429;27;20047;-60
2021/10/17 06:57:41;;;;;;;5.97;4.60;;;15.30;84.50;;;;;;4227750;27;20051;-60
2021/10/17 07:00:05;;;;;;;6.65;4.70;;;15.20;85.10;;;;;;4226592;27;20067;-60
2021/10/17 07:02:27;;;;;;;8.02;4.30;;;15.20;84.90;;;;;;4223736;27;20071;-64
2021/10/17 07:04:49;;;;;;;6.25;4.93;;;15.20;89.70;;;;;;4226343;27;20553;-61
2021/10/17 07:07:11;;;;;;;9.25;4.50;;;15.20;89.80;;;;;;4215411;28;20048;-60
2021/10/17 07:09:34;;;;;;;7.28;5.00;;;15.20;90.00;;;;;;4211631;27;20044;-60
2021/10/17 07:12:11;;;;;;;7.47;4.57;;;15.20;90.10;;;;;;4208831;28;20438;-60
2021/10/17 07:14:34;;;;;;;6.95;4.85;;;15.20;89.10;;;;;;4210163;28;20052;-60
2021/10/17 07:17:06;;;;;;;7.93;4.38;;;15.20;88.60;;;;;;4208604;28;20055;-60
2021/10/17 07:19:28;;;;;;;8.07;4.63;;;15.20;89.10;;;;;;4209239;28;20057;-60
2021/10/17 07:21:50;;;;;;;4.55;3.60;;;15.20;87.90;;;;;;4210662;28;20407;-60
2021/10/17 07:24:12;;;;;;;8.60;5.40;;;15.20;87.60;;;;;;4209020;28;20043;-60
2021/10/17 07:26:35;;;;;;;11.70;5.00;;;15.20;87.00;;;;;;4208823;28;20052;-60
2021/10/17 07:28:59;;;;;;;8.43;4.70;;;15.20;86.50;;;;;;4209015;28;20126;-60
2021/10/17 07:31:21;;;;;;;9.88;4.38;;;15.20;86.20;;;;;;4208847;28;20048;-60
2021/10/17 07:33:52;;;;;;;9.18;4.40;;;15.20;85.90;;;;;;4220184;27;20134;-60
2021/10/17 07:36:14;;;;;;;10.43;5.10;;;15.20;85.90;;;;;;4210938;28;20380;-60
2021/10/17 07:38:44;;;;;;;10.02;4.82;;;15.20;85.50;;;;;;4208350;28;20044;-60
2021/10/17 07:41:06;;;;;;;7.47;4.88;;;15.20;85.50;;;;;;4208651;28;20048;-60
2021/10/17 07:43:28;;;;;;;6.63;4.90;;;15.20;85.10;;;;;;4208307;28;20044;-60
2021/10/17 07:45:52;;;;;;;10.40;4.57;;;15.20;84.90;;;;;;4210119;28;20563;-60
2021/10/17 07:48:14;;;;;;;6.05;4.22;;;15.20;84.60;;;;;;4208819;28;20082;-60
2021/10/17 07:50:40;;;;;;;7.90;4.70;;;15.10;84.70;;;;;;4208623;28;20061;-60
2021/10/17 07:53:05;;;;;;;6.25;4.47;;;15.20;84.70;;;;;;4207938;28;20172;-60
2021/10/17 07:55:29;;;;;;;8.98;4.80;;;15.10;84.40;;;;;;4207444;28;20039;-59
2021/10/17 07:57:55;;;;;;;7.18;4.78;;;15.10;84.30;;;;;;4206956;28;20442;-60
2021/10/17 08:00:25;;;;;;;8.45;5.07;;;15.10;84.10;;;;;;4200212;28;20051;-60
2021/10/17 08:03:08;;;;;;;7.43;4.95;;;15.20;84.50;;;;;;4209462;28;20058;-59
2021/10/17 08:05:32;;;;;;;10.65;4.97;;;15.40;82.90;;;;;;4236482;27;20062;-59
2021/10/17 08:07:55;;;;;;;6.30;4.55;;;15.60;82.00;;;;;;4205703;28;20071;-59
2021/10/17 08:10:18;;;;;;;7.10;4.80;;;15.80;81.00;;;;;;4208187;28;20055;-59
2021/10/17 08:12:43;;;;;;;7.50;4.72;;;16.00;79.80;;;;;;4208386;28;20056;-60
2021/10/17 08:15:06;;;;;;;10.20;4.95;;;16.20;79.00;;;;;;4208138;28;20040;-61
2021/10/17 08:17:29;;;;;;;7.78;4.25;;;16.40;78.00;;;;;;4207593;28;20449;-60
2021/10/17 08:20:01;;;;;;;8.83;3.90;;;16.60;77.00;;;;;;4219301;27;20051;-60
2021/10/17 08:22:25;;;;;;;7.45;4.93;;;16.70;76.20;;;;;;4209650;28;20051;-61
2021/10/17 08:24:51;;;;;;;8.00;4.60;;;16.90;75.20;;;;;;4207996;28;20418;-60
2021/10/17 08:27:14;;;;;;;8.95;4.22;;;17.00;74.00;;;;;;4207664;28;20052;-60
2021/10/17 08:29:36;;;;;;;14.52;4.53;;;17.20;73.20;;;;;;4208440;28;20477;-61
2021/10/17 08:31:58;;;;;;;4.75;4.22;;;17.20;72.70;;;;;;4205222;28;20054;-60
2021/10/17 08:34:24;;;;;;;6.57;4.22;;;17.20;72.20;;;;;;4204226;28;20040;-60
2021/10/17 08:36:48;;;;;;;9.63;5.05;;;17.20;72.10;;;;;;4207997;28;20052;-60
2021/10/17 08:39:40;;;;;;;46.22;20.35;;;17.20;72.20;;;;;;4212700;27;20043;-60
2021/10/17 08:42:03;;;;;;;8.95;4.63;;;17.10;72.40;;;;;;4212171;28;20473;-60
2021/10/17 08:44:25;;;;;;;5.35;4.40;;;17.00;72.40;;;;;;4216417;28;20059;-61
2021/10/17 08:47:10;;;;;;;10.40;6.10;;;17.00;72.40;;;;;;4224466;27;20592;-60
2021/10/17 08:49:39;;;;;;;10.38;5.82;;;16.90;72.70;;;;;;4224142;27;20480;-61
2021/10/17 08:52:09;;;;;;;10.85;6.30;;;16.80;73.00;;;;;;4224566;27;20133;-60
2021/10/17 08:54:33;;;;;;;12.02;6.15;;;16.70;73.20;;;;;;4219797;28;20441;-60
2021/10/17 08:57:01;;;;;;;12.98;7.03;;;16.70;73.40;;;;;;4228284;27;20047;-60
2021/10/17 08:59:25;;;;;;;22.30;8.05;;;16.60;73.60;;;;;;4207289;28;20063;-60
2021/10/17 09:01:47;;;;;;;12.00;6.15;;;16.60;73.90;;;;;;4193357;28;20434;-60
2021/10/17 09:04:14;;;;;;;13.65;5.78;;;16.50;74.30;;;;;;4190735;28;20415;-60
2021/10/17 09:06:52;;;;;;;10.50;5.63;;;16.50;74.20;;;;;;4201656;28;20116;-60
2021/10/17 09:09:18;;;;;;;11.95;6.80;;;16.60;74.30;;;;;;4207564;28;20071;-60
2021/10/17 09:11:46;;;;;;;7.38;4.90;;;16.60;73.60;;;;;;4206990;28;20052;-60
2021/10/17 09:14:10;;;;;;;10.50;5.03;;;16.60;73.20;;;;;;4207567;28;20494;-60
2021/10/17 09:16:36;;;;;;;11.82;5.80;;;16.60;73.00;;;;;;4191974;28;20493;-60
2021/10/17 09:19:09;;;;;;;9.23;5.03;;;16.60;73.00;;;;;;4207959;28;20139;-60
2021/10/17 09:21:32;;;;;;;13.95;6.00;;;16.60;73.10;;;;;;4208499;28;20066;-60
2021/10/17 09:23:54;;;;;;;10.82;6.15;;;16.60;73.40;;;;;;4208206;28;20519;-60
2021/10/17 09:26:20;;;;;;;11.73;5.75;;;16.50;73.40;;;;;;4208627;28;20098;-60
2021/10/17 09:28:43;;;;;;;13.60;7.20;;;16.50;73.80;;;;;;4208405;28;20048;-60
2021/10/17 09:31:08;;;;;;;11.68;6.30;;;16.50;74.10;;;;;;4207187;27;20068;-60
2021/10/17 09:33:34;;;;;;;9.85;5.65;;;16.40;73.90;;;;;;4208221;27;20101;-59
2021/10/17 09:35:57;;;;;;;12.45;5.55;;;16.40;73.90;;;;;;4207087;27;20048;-59
2021/10/17 09:38:44;;;;;;;11.95;6.45;;;16.30;73.80;;;;;;4210060;27;20452;-60
2021/10/17 09:41:13;;;;;;;;;;;16.30;74.10;;;;;;4223841;27;20422;-60
2021/10/17 09:43:55;;;;;;;10.95;6.07;;;16.20;74.30;;;;;;4223198;27;19920;-60
2021/10/17 09:46:29;;;;;;;6.90;5.15;;;16.20;74.30;;;;;;4223564;28;20051;-60
2021/10/17 09:48:51;;;;;;;11.82;6.50;;;16.10;74.40;;;;;;4225222;27;20047;-60
2021/10/17 09:51:16;;;;;;;8.90;4.80;;;16.10;74.60;;;;;;4224749;27;20047;-60
2021/10/17 09:53:46;;;;;;;10.93;4.22;;;16.00;74.60;;;;;;4224759;27;20055;-59
2021/10/17 09:56:09;;;;;;;8.73;5.18;;;16.00;74.70;;;;;;4224635;27;20412;-59
2021/10/17 09:58:31;;;;;;;10.00;5.03;;;16.00;74.70;;;;;;4220849;27;20055;-60
2021/10/17 10:00:54;;;;;;;8.63;5.10;;;16.00;74.60;;;;;;4216665;27;20494;-60
2021/10/17 10:03:21;;;;;;;12.00;5.20;;;15.90;74.30;;;;;;4208071;28;20048;-60
2021/10/17 10:05:46;;;;;;;8.98;5.30;;;15.90;74.40;;;;;;4207680;28;20049;-60
2021/10/17 10:08:10;;;;;;;6.53;4.70;;;15.90;74.60;;;;;;4207607;28;20055;-60
2021/10/17 10:10:32;;;;;;;7.40;4.57;;;15.80;74.50;;;;;;4190889;28;20091;-59
2021/10/17 10:12:57;;;;;;;7.10;4.38;;;15.80;74.50;;;;;;4195145;28;20571;-60
2021/10/17 10:15:20;;;;;;;7.10;3.97;;;15.80;74.50;;;;;;4207720;28;20039;-59
2021/10/17 10:17:46;;;;;;;8.00;4.25;;;15.80;74.40;;;;;;4207800;28;20075;-60
2021/10/17 10:20:09;;;;;;;7.90;4.38;;;15.80;75.20;;;;;;4207804;28;20044;-60
2021/10/17 10:22:34;;;;;;;8.98;4.30;;;15.80;74.10;;;;;;4207532;28;20517;-60
2021/10/17 10:24:57;;;;;;;8.80;4.43;;;15.80;74.10;;;;;;4224679;27;20489;-59
2021/10/17 10:27:20;;;;;;;8.23;4.32;;;15.70;74.20;;;;;;4219473;27;20131;-59
2021/10/17 10:29:42;;;;;;;6.95;4.32;;;15.70;74.20;;;;;;4207762;28;20131;-59
2021/10/17 10:32:07;;;;;;;7.75;4.20;;;15.70;74.30;;;;;;4207579;28;20090;-60
2021/10/17 10:34:54;;;;;;;10.18;4.28;;;15.70;75.10;;;;;;4210369;27;20539;-59
2021/10/17 10:37:18;;;;;;;8.25;5.18;;;15.70;74.50;;;;;;4213829;27;20473;-60
2021/10/17 10:40:08;;;;;;;6.25;3.80;;;15.70;74.60;;;;;;4207769;28;20054;-60
2021/10/17 10:42:34;;;;;;;8.32;4.78;;;15.70;74.30;;;;;;4207499;28;20076;-59
2021/10/17 10:45:20;;;;;;;6.43;4.25;;;15.70;74.50;;;;;;4214528;27;20489;-58
2021/10/17 10:47:43;;;;;;;7.18;4.28;;;15.60;74.30;;;;;;4207242;28;20044;-58
2021/10/17 10:50:06;;;;;;;5.50;4.20;;;15.60;74.40;;;;;;4207346;28;20044;-58
2021/10/17 10:52:49;;;;;;;6.25;4.55;;;15.60;74.30;;;;;;4207622;28;20043;-58
2021/10/17 10:55:14;;;;;;;7.93;4.25;;;15.60;74.20;;;;;;4207609;28;20126;-60
2021/10/17 10:57:39;;;;;;;11.88;4.68;;;15.60;74.30;;;;;;4207685;28;20059;-60
2021/10/17 11:00:04;;;;;;;8.23;4.82;;;15.50;74.30;;;;;;4202461;28;20075;-60
2021/10/17 11:02:26;;;;;;;4.75;3.42;;;15.50;74.20;;;;;;4207281;28;20135;-58
2021/10/17 11:05:00;;;;;;;6.55;4.10;;;15.50;74.30;;;;;;4224274;27;20063;-58
2021/10/17 11:07:23;;;;;;;9.90;4.72;;;15.50;74.30;;;;;;4207695;28;20043;-58
2021/10/17 11:09:46;;;;;;;4.85;3.58;;;15.50;74.30;;;;;;4212668;27;20056;-60
2021/10/17 11:12:10;;;;;;;8.15;5.00;;;15.50;74.30;;;;;;4209174;28;20410;-58
2021/10/17 11:14:32;;;;;;;8.23;5.03;;;15.50;74.20;;;;;;4210460;28;20143;-58
2021/10/17 11:17:01;;;;;;;8.50;4.18;;;15.50;74.00;;;;;;4210476;28;20051;-58
2021/10/17 11:19:24;;;;;;;8.13;4.90;;;15.50;74.90;;;;;;4210735;28;20040;-58
2021/10/17 11:21:47;;;;;;;6.35;4.90;;;15.50;74.20;;;;;;4211503;28;20497;-58
2021/10/17 11:24:10;;;;;;;7.35;3.80;;;15.50;74.20;;;;;;4193806;28;20048;-57
2021/10/17 11:26:32;;;;;;;8.73;4.97;;;15.50;74.20;;;;;;4203465;28;20117;-58
2021/10/17 11:28:55;;;;;;;7.60;4.57;;;15.50;74.10;;;;;;4210462;28;20051;-58
2021/10/17 11:31:24;;;;;;;8.43;3.83;;;15.50;74.20;;;;;;4209776;28;20044;-58
2021/10/17 11:33:47;;;;;;;5.50;4.10;;;15.50;74.10;;;;;;4210125;28;20494;-58
2021/10/17 11:36:12;;;;;;;8.02;3.38;;;15.50;74.00;;;;;;4210072;28;20056;-58
2021/10/17 11:38:34;;;;;;;8.38;4.60;;;15.50;74.00;;;;;;4210165;28;20048;-58
2021/10/17 11:41:05;;;;;;;5.55;4.45;;;15.50;74.10;;;;;;4208511;28;20048;-58
2021/10/17 11:43:33;;;;;;;6.00;4.30;;;15.50;74.20;;;;;;4209454;28;20529;-57
2021/10/17 11:46:03;;;;;;;5.22;3.83;;;15.50;74.50;;;;;;4209883;28;20052;-61
2021/10/17 11:48:25;;;;;;;7.05;4.07;;;15.50;74.60;;;;;;4205702;28;20043;-58
2021/10/17 11:50:49;;;;;;;4.45;4.05;;;15.50;74.50;;;;;;4204340;28;20051;-58
2021/10/17 11:53:13;;;;;;;9.02;4.15;;;15.50;74.20;;;;;;4176886;28;20052;-58
2021/10/17 11:55:38;;;;;;;4.90;3.38;;;15.50;74.20;;;;;;4177021;28;20113;-58
2021/10/17 11:58:02;;;;;;;5.20;3.65;;;15.50;74.20;;;;;;4176506;28;20053;-56
2021/10/17 12:00:26;;;;;;;8.60;4.05;;;15.50;74.00;;;;;;4193178;28;20048;-58
2021/10/17 12:02:51;;;;;;;4.90;3.85;;;15.50;73.80;;;;;;4193217;28;20048;-58
2021/10/17 12:05:18;;;;;;;7.10;3.17;;;15.50;73.90;;;;;;4193316;28;20149;-58
2021/10/17 12:07:42;;;;;;;9.88;3.42;;;15.50;74.00;;;;;;4193022;28;20135;-59
2021/10/17 12:10:04;;;;;;;7.00;3.53;;;15.50;74.20;;;;;;4192962;28;20063;-58
2021/10/17 12:12:26;;;;;;;4.10;3.50;;;15.50;74.00;;;;;;4207890;28;20494;-58
2021/10/17 12:15:00;;;;;;;6.22;3.05;;;15.50;74.00;;;;;;4209491;28;20048;-58
2021/10/17 12:17:22;;;;;;;4.85;3.17;;;15.50;74.00;;;;;;4208725;28;20052;-58
2021/10/17 12:19:59;;;;;;;7.32;3.45;;;15.50;74.00;;;;;;4208136;28;20047;-58
2021/10/17 12:22:21;;;;;;;6.70;3.50;;;15.50;73.90;;;;;;4192682;28;20049;-58
2021/10/17 12:24:48;;;;;;;5.63;2.38;;;15.50;73.90;;;;;;4191241;28;20044;-58
2021/10/17 12:27:31;;;;;;;5.22;3.13;;;15.50;73.90;;;;;;4192594;28;20131;-58
2021/10/17 12:29:53;;;;;;;7.95;3.72;;;15.50;73.70;;;;;;4192448;28;20102;-58
2021/10/17 12:32:17;;;;;;;4.15;3.50;;;15.40;73.50;;;;;;4198201;28;20502;-57